sensor_id;sensor_type;location;lat;lon;timestamp;P1;durP1;ratioP1;P2;durP2;ratioP2
80334;SDS011;69653;52.674;13.574;2023-05-10T00:00:21;7.80;;;4.80;;
80334;SDS011;69653;52.674;13.574;2023-05-10T00:02:48;8.75;;;4.75;;
80334;SDS011;69653;52.674;13.574;2023-05-10T00:05:14;6.53;;;4.50;;
80334;SDS011;69653;52.674;13.574;2023-05-10T00:07:39;7.72;;;4.57;;
80334;SDS011;69653;52.674;13.574;2023-05-10T00:10:05;7.83;;;4.33;;
80334;SDS011;69653;52.674;13.574;2023-05-10T00:12:31;7.35;;;4.43;;
80334;SDS011;69653;52.674;13.574;2023-05-10T00:14:57;6.70;;;4.40;;
80334;SDS011;69653;52.674;13.574;2023-05-10T00:17:22;8.10;;;4.50;;
80334;SDS011;69653;52.674;13.574;2023-05-10T00:19:47;7.87;;;5.07;;
80334;SDS011;69653;52.674;13.574;2023-05-10T00:22:13;8.32;;;4.35;;
80334;SDS011;69653;52.674;13.574;2023-05-10T00:24:38;7.07;;;4.70;;
80334;SDS011;69653;52.674;13.574;2023-05-10T00:27:03;7.63;;;4.23;;
80334;SDS011;69653;52.674;13.574;2023-05-10T00:29:29;7.90;;;4.73;;
80334;SDS011;69653;52.674;13.574;2023-05-10T00:31:54;7.60;;;4.87;;
80334;SDS011;69653;52.674;13.574;2023-05-10T00:34:20;8.23;;;4.55;;
80334;SDS011;69653;52.674;13.574;2023-05-10T00:36:45;9.15;;;4.75;;
80334;SDS011;69653;52.674;13.574;2023-05-10T00:39:11;7.20;;;4.20;;
80334;SDS011;69653;52.674;13.574;2023-05-10T00:41:37;8.52;;;4.35;;
80334;SDS011;69653;52.674;13.574;2023-05-10T00:44:02;6.50;;;4.43;;
80334;SDS011;69653;52.674;13.574;2023-05-10T00:46:27;8.13;;;4.77;;
80334;SDS011;69653;52.674;13.574;2023-05-10T00:48:53;9.07;;;4.97;;
80334;SDS011;69653;52.674;13.574;2023-05-10T00:51:19;8.32;;;4.78;;
80334;SDS011;69653;52.674;13.574;2023-05-10T00:53:45;7.18;;;4.38;;
80334;SDS011;69653;52.674;13.574;2023-05-10T00:56:10;6.85;;;4.20;;
80334;SDS011;69653;52.674;13.574;2023-05-10T00:58:37;7.93;;;4.60;;
80334;SDS011;69653;52.674;13.574;2023-05-10T01:01:03;7.50;;;4.80;;
80334;SDS011;69653;52.674;13.574;2023-05-10T01:03:30;9.77;;;4.95;;
80334;SDS011;69653;52.674;13.574;2023-05-10T01:05:57;7.70;;;4.78;;
80334;SDS011;69653;52.674;13.574;2023-05-10T01:08:22;7.63;;;4.13;;
80334;SDS011;69653;52.674;13.574;2023-05-10T01:10:47;7.80;;;4.63;;
80334;SDS011;69653;52.674;13.574;2023-05-10T01:13:15;9.50;;;4.70;;
80334;SDS011;69653;52.674;13.574;2023-05-10T01:15:48;9.32;;;4.90;;
80334;SDS011;69653;52.674;13.574;2023-05-10T01:18:14;8.27;;;4.97;;
80334;SDS011;69653;52.674;13.574;2023-05-10T01:20:43;10.32;;;5.55;;
80334;SDS011;69653;52.674;13.574;2023-05-10T01:31:37;8.25;;;4.88;;
80334;SDS011;69653;52.674;13.574;2023-05-10T01:34:21;11.35;;;5.13;;
80334;SDS011;69653;52.674;13.574;2023-05-10T01:37:13;9.75;;;4.63;;
80334;SDS011;69653;52.674;13.574;2023-05-10T01:39:44;8.80;;;4.22;;
80334;SDS011;69653;52.674;13.574;2023-05-10T01:42:14;7.97;;;5.13;;
80334;SDS011;69653;52.674;13.574;2023-05-10T01:44:58;7.00;;;4.38;;
80334;SDS011;69653;52.674;13.574;2023-05-10T01:47:35;9.75;;;5.72;;
80334;SDS011;69653;52.674;13.574;2023-05-10T01:50:06;9.57;;;5.10;;
80334;SDS011;69653;52.674;13.574;2023-05-10T01:52:41;8.48;;;5.07;;
80334;SDS011;69653;52.674;13.574;2023-05-10T01:55:09;8.70;;;4.88;;
80334;SDS011;69653;52.674;13.574;2023-05-10T01:57:39;8.18;;;4.50;;
80334;SDS011;69653;52.674;13.574;2023-05-10T02:00:07;7.53;;;4.55;;
80334;SDS011;69653;52.674;13.574;2023-05-10T02:02:36;8.68;;;4.47;;
80334;SDS011;69653;52.674;13.574;2023-05-10T02:05:03;8.13;;;5.07;;
80334;SDS011;69653;52.674;13.574;2023-05-10T02:07:31;8.30;;;4.80;;
80334;SDS011;69653;52.674;13.574;2023-05-10T02:10:00;7.20;;;4.32;;
80334;SDS011;69653;52.674;13.574;2023-05-10T02:12:26;8.73;;;4.57;;
80334;SDS011;69653;52.674;13.574;2023-05-10T02:14:53;8.88;;;4.70;;
80334;SDS011;69653;52.674;13.574;2023-05-10T02:17:19;7.50;;;4.60;;
80334;SDS011;69653;52.674;13.574;2023-05-10T02:19:46;9.88;;;4.88;;
80334;SDS011;69653;52.674;13.574;2023-05-10T02:22:12;10.10;;;4.60;;
80334;SDS011;69653;52.674;13.574;2023-05-10T02:24:39;8.60;;;4.63;;
80334;SDS011;69653;52.674;13.574;2023-05-10T02:27:06;8.43;;;4.47;;
80334;SDS011;69653;52.674;13.574;2023-05-10T02:29:32;7.82;;;4.55;;
80334;SDS011;69653;52.674;13.574;2023-05-10T02:31:59;6.90;;;4.30;;
80334;SDS011;69653;52.674;13.574;2023-05-10T02:34:25;7.85;;;4.40;;
80334;SDS011;69653;52.674;13.574;2023-05-10T02:36:52;11.32;;;4.75;;
80334;SDS011;69653;52.674;13.574;2023-05-10T02:39:18;8.20;;;4.20;;
80334;SDS011;69653;52.674;13.574;2023-05-10T02:41:45;7.05;;;4.90;;
80334;SDS011;69653;52.674;13.574;2023-05-10T02:44:12;8.90;;;4.07;;
80334;SDS011;69653;52.674;13.574;2023-05-10T02:46:40;7.22;;;4.22;;
80334;SDS011;69653;52.674;13.574;2023-05-10T02:49:05;6.75;;;4.50;;
80334;SDS011;69653;52.674;13.574;2023-05-10T02:51:32;8.52;;;4.50;;
80334;SDS011;69653;52.674;13.574;2023-05-10T02:54:07;7.93;;;3.95;;
80334;SDS011;69653;52.674;13.574;2023-05-10T02:56:36;7.65;;;4.45;;
80334;SDS011;69653;52.674;13.574;2023-05-10T02:59:05;7.28;;;4.40;;
80334;SDS011;69653;52.674;13.574;2023-05-10T03:01:31;6.93;;;4.00;;
80334;SDS011;69653;52.674;13.574;2023-05-10T03:03:57;7.82;;;4.80;;
80334;SDS011;69653;52.674;13.574;2023-05-10T03:06:22;11.67;;;4.07;;
80334;SDS011;69653;52.674;13.574;2023-05-10T03:08:47;7.77;;;4.23;;
80334;SDS011;69653;52.674;13.574;2023-05-10T03:13:44;7.75;;;4.18;;
80334;SDS011;69653;52.674;13.574;2023-05-10T03:16:23;6.85;;;4.40;;
80334;SDS011;69653;52.674;13.574;2023-05-10T03:18:56;10.15;;;4.70;;
80334;SDS011;69653;52.674;13.574;2023-05-10T03:21:30;7.63;;;3.92;;
80334;SDS011;69653;52.674;13.574;2023-05-10T03:24:01;7.28;;;4.38;;
80334;SDS011;69653;52.674;13.574;2023-05-10T03:26:32;9.60;;;4.80;;
80334;SDS011;69653;52.674;13.574;2023-05-10T03:28:58;7.05;;;4.22;;
80334;SDS011;69653;52.674;13.574;2023-05-10T03:31:24;8.30;;;4.35;;
80334;SDS011;69653;52.674;13.574;2023-05-10T03:33:50;10.10;;;4.55;;
80334;SDS011;69653;52.674;13.574;2023-05-10T03:36:16;13.07;;;5.10;;
80334;SDS011;69653;52.674;13.574;2023-05-10T03:38:42;6.45;;;3.80;;
80334;SDS011;69653;52.674;13.574;2023-05-10T03:41:08;7.63;;;4.30;;
80334;SDS011;69653;52.674;13.574;2023-05-10T03:43:33;7.23;;;4.13;;
80334;SDS011;69653;52.674;13.574;2023-05-10T03:45:58;8.52;;;3.97;;
80334;SDS011;69653;52.674;13.574;2023-05-10T03:48:26;8.45;;;4.13;;
80334;SDS011;69653;52.674;13.574;2023-05-10T03:50:52;7.70;;;4.27;;
80334;SDS011;69653;52.674;13.574;2023-05-10T03:53:17;13.53;;;4.93;;
80334;SDS011;69653;52.674;13.574;2023-05-10T03:55:42;10.13;;;4.17;;
80334;SDS011;69653;52.674;13.574;2023-05-10T03:58:10;7.20;;;3.93;;
80334;SDS011;69653;52.674;13.574;2023-05-10T04:00:36;9.30;;;4.43;;
80334;SDS011;69653;52.674;13.574;2023-05-10T04:03:02;6.78;;;3.70;;
80334;SDS011;69653;52.674;13.574;2023-05-10T04:05:27;7.53;;;3.80;;
80334;SDS011;69653;52.674;13.574;2023-05-10T04:07:52;10.00;;;5.00;;
80334;SDS011;69653;52.674;13.574;2023-05-10T04:10:17;7.07;;;3.67;;
80334;SDS011;69653;52.674;13.574;2023-05-10T04:12:43;8.77;;;4.45;;
80334;SDS011;69653;52.674;13.574;2023-05-10T04:15:08;7.20;;;4.43;;
80334;SDS011;69653;52.674;13.574;2023-05-10T04:17:34;7.03;;;3.75;;
80334;SDS011;69653;52.674;13.574;2023-05-10T04:19:59;8.80;;;4.73;;
80334;SDS011;69653;52.674;13.574;2023-05-10T04:22:24;6.83;;;3.73;;
80334;SDS011;69653;52.674;13.574;2023-05-10T04:24:50;6.67;;;3.70;;
80334;SDS011;69653;52.674;13.574;2023-05-10T04:27:15;9.07;;;4.35;;
80334;SDS011;69653;52.674;13.574;2023-05-10T04:29:41;7.07;;;4.33;;
80334;SDS011;69653;52.674;13.574;2023-05-10T04:32:06;5.85;;;3.42;;
80334;SDS011;69653;52.674;13.574;2023-05-10T04:34:32;7.80;;;4.00;;
80334;SDS011;69653;52.674;13.574;2023-05-10T04:36:59;8.35;;;4.00;;
80334;SDS011;69653;52.674;13.574;2023-05-10T04:39:24;6.90;;;3.80;;
80334;SDS011;69653;52.674;13.574;2023-05-10T04:41:49;7.30;;;4.13;;
80334;SDS011;69653;52.674;13.574;2023-05-10T04:44:15;9.50;;;4.20;;
80334;SDS011;69653;52.674;13.574;2023-05-10T04:46:40;6.67;;;4.20;;
80334;SDS011;69653;52.674;13.574;2023-05-10T04:49:05;6.53;;;3.38;;
80334;SDS011;69653;52.674;13.574;2023-05-10T04:51:31;6.67;;;3.67;;
80334;SDS011;69653;52.674;13.574;2023-05-10T04:53:56;6.13;;;3.72;;
80334;SDS011;69653;52.674;13.574;2023-05-10T04:56:22;7.13;;;3.90;;
80334;SDS011;69653;52.674;13.574;2023-05-10T04:58:47;7.17;;;4.20;;
80334;SDS011;69653;52.674;13.574;2023-05-10T05:01:12;7.00;;;3.47;;
80334;SDS011;69653;52.674;13.574;2023-05-10T05:03:38;7.13;;;3.73;;
80334;SDS011;69653;52.674;13.574;2023-05-10T05:06:03;10.20;;;3.73;;
80334;SDS011;69653;52.674;13.574;2023-05-10T05:08:28;6.53;;;3.22;;
80334;SDS011;69653;52.674;13.574;2023-05-10T05:10:54;6.30;;;3.80;;
80334;SDS011;69653;52.674;13.574;2023-05-10T05:13:19;6.68;;;4.10;;
80334;SDS011;69653;52.674;13.574;2023-05-10T05:15:45;5.10;;;3.20;;
80334;SDS011;69653;52.674;13.574;2023-05-10T05:18:10;6.67;;;3.67;;
80334;SDS011;69653;52.674;13.574;2023-05-10T05:20:35;5.83;;;3.47;;
80334;SDS011;69653;52.674;13.574;2023-05-10T05:23:01;6.40;;;3.60;;
80334;SDS011;69653;52.674;13.574;2023-05-10T05:25:26;6.00;;;3.45;;
80334;SDS011;69653;52.674;13.574;2023-05-10T05:27:51;13.47;;;3.77;;
80334;SDS011;69653;52.674;13.574;2023-05-10T05:30:17;8.20;;;3.20;;
80334;SDS011;69653;52.674;13.574;2023-05-10T05:32:42;6.37;;;3.07;;
80334;SDS011;69653;52.674;13.574;2023-05-10T05:35:07;7.33;;;3.30;;
80334;SDS011;69653;52.674;13.574;2023-05-10T05:37:33;7.65;;;3.50;;
80334;SDS011;69653;52.674;13.574;2023-05-10T05:39:58;5.80;;;3.40;;
80334;SDS011;69653;52.674;13.574;2023-05-10T05:42:26;8.23;;;3.38;;
80334;SDS011;69653;52.674;13.574;2023-05-10T05:44:51;9.93;;;3.03;;
80334;SDS011;69653;52.674;13.574;2023-05-10T05:47:16;6.00;;;3.30;;
80334;SDS011;69653;52.674;13.574;2023-05-10T05:49:42;5.40;;;3.00;;
80334;SDS011;69653;52.674;13.574;2023-05-10T05:52:10;6.05;;;3.38;;
80334;SDS011;69653;52.674;13.574;2023-05-10T05:54:35;5.03;;;2.90;;
80334;SDS011;69653;52.674;13.574;2023-05-10T05:57:01;5.17;;;2.90;;
80334;SDS011;69653;52.674;13.574;2023-05-10T05:59:26;5.28;;;2.63;;
80334;SDS011;69653;52.674;13.574;2023-05-10T06:01:52;5.72;;;2.85;;
80334;SDS011;69653;52.674;13.574;2023-05-10T06:04:18;5.55;;;2.80;;
80334;SDS011;69653;52.674;13.574;2023-05-10T06:06:43;6.35;;;3.00;;
80334;SDS011;69653;52.674;13.574;2023-05-10T06:09:09;5.68;;;2.70;;
80334;SDS011;69653;52.674;13.574;2023-05-10T06:11:34;5.18;;;2.60;;
80334;SDS011;69653;52.674;13.574;2023-05-10T06:14:00;5.30;;;2.72;;
80334;SDS011;69653;52.674;13.574;2023-05-10T06:16:26;5.13;;;2.40;;
80334;SDS011;69653;52.674;13.574;2023-05-10T06:18:52;6.80;;;2.80;;
80334;SDS011;69653;52.674;13.574;2023-05-10T06:21:17;4.80;;;2.50;;
80334;SDS011;69653;52.674;13.574;2023-05-10T06:23:42;9.33;;;3.30;;
80334;SDS011;69653;52.674;13.574;2023-05-10T06:26:08;5.82;;;2.60;;
80334;SDS011;69653;52.674;13.574;2023-05-10T06:28:34;7.93;;;2.63;;
80334;SDS011;69653;52.674;13.574;2023-05-10T06:30:59;5.95;;;2.67;;
80334;SDS011;69653;52.674;13.574;2023-05-10T06:33:25;4.97;;;2.43;;
80334;SDS011;69653;52.674;13.574;2023-05-10T06:35:50;6.00;;;2.42;;
80334;SDS011;69653;52.674;13.574;2023-05-10T06:38:16;7.50;;;2.72;;
80334;SDS011;69653;52.674;13.574;2023-05-10T06:40:41;4.93;;;2.20;;
80334;SDS011;69653;52.674;13.574;2023-05-10T06:43:07;5.28;;;2.35;;
80334;SDS011;69653;52.674;13.574;2023-05-10T06:45:32;5.25;;;2.40;;
80334;SDS011;69653;52.674;13.574;2023-05-10T06:47:58;4.97;;;2.03;;
80334;SDS011;69653;52.674;13.574;2023-05-10T06:50:23;6.17;;;2.30;;
80334;SDS011;69653;52.674;13.574;2023-05-10T06:52:48;5.30;;;2.77;;
80334;SDS011;69653;52.674;13.574;2023-05-10T06:55:14;5.30;;;2.50;;
80334;SDS011;69653;52.674;13.574;2023-05-10T06:57:39;4.80;;;2.43;;
80334;SDS011;69653;52.674;13.574;2023-05-10T07:00:04;5.57;;;2.50;;
80334;SDS011;69653;52.674;13.574;2023-05-10T07:02:30;6.55;;;2.65;;
80334;SDS011;69653;52.674;13.574;2023-05-10T07:04:56;4.00;;;2.20;;
80334;SDS011;69653;52.674;13.574;2023-05-10T07:07:21;5.93;;;2.37;;
80334;SDS011;69653;52.674;13.574;2023-05-10T07:09:46;5.27;;;2.53;;
80334;SDS011;69653;52.674;13.574;2023-05-10T07:12:12;4.75;;;2.80;;
80334;SDS011;69653;52.674;13.574;2023-05-10T07:14:37;4.93;;;2.63;;
80334;SDS011;69653;52.674;13.574;2023-05-10T07:17:02;6.10;;;2.80;;
80334;SDS011;69653;52.674;13.574;2023-05-10T07:19:28;6.13;;;2.40;;
80334;SDS011;69653;52.674;13.574;2023-05-10T07:21:54;5.93;;;2.33;;
80334;SDS011;69653;52.674;13.574;2023-05-10T07:24:20;4.80;;;2.35;;
80334;SDS011;69653;52.674;13.574;2023-05-10T07:26:45;5.70;;;2.30;;
80334;SDS011;69653;52.674;13.574;2023-05-10T07:29:11;6.13;;;2.35;;
80334;SDS011;69653;52.674;13.574;2023-05-10T07:31:36;5.10;;;2.10;;
80334;SDS011;69653;52.674;13.574;2023-05-10T07:34:02;4.10;;;2.30;;
80334;SDS011;69653;52.674;13.574;2023-05-10T07:36:27;7.93;;;2.20;;
80334;SDS011;69653;52.674;13.574;2023-05-10T07:38:52;4.93;;;2.50;;
80334;SDS011;69653;52.674;13.574;2023-05-10T07:41:18;6.90;;;2.40;;
80334;SDS011;69653;52.674;13.574;2023-05-10T07:43:43;4.33;;;2.20;;
80334;SDS011;69653;52.674;13.574;2023-05-10T07:46:09;6.93;;;2.22;;
80334;SDS011;69653;52.674;13.574;2023-05-10T07:48:36;4.15;;;2.20;;
80334;SDS011;69653;52.674;13.574;2023-05-10T07:51:01;8.80;;;2.33;;
80334;SDS011;69653;52.674;13.574;2023-05-10T07:53:27;6.50;;;2.28;;
80334;SDS011;69653;52.674;13.574;2023-05-10T07:55:54;6.27;;;2.00;;
80334;SDS011;69653;52.674;13.574;2023-05-10T07:58:21;4.53;;;2.13;;
80334;SDS011;69653;52.674;13.574;2023-05-10T08:00:47;5.73;;;1.90;;
80334;SDS011;69653;52.674;13.574;2023-05-10T08:03:13;4.65;;;2.10;;
80334;SDS011;69653;52.674;13.574;2023-05-10T08:05:38;4.33;;;2.13;;
80334;SDS011;69653;52.674;13.574;2023-05-10T08:08:04;4.50;;;1.93;;
80334;SDS011;69653;52.674;13.574;2023-05-10T08:10:29;6.77;;;2.30;;
80334;SDS011;69653;52.674;13.574;2023-05-10T08:12:54;9.77;;;2.37;;
80334;SDS011;69653;52.674;13.574;2023-05-10T08:15:20;7.50;;;2.27;;
80334;SDS011;69653;52.674;13.574;2023-05-10T08:17:45;4.60;;;2.00;;
80334;SDS011;69653;52.674;13.574;2023-05-10T08:20:10;5.73;;;2.37;;
80334;SDS011;69653;52.674;13.574;2023-05-10T08:22:37;8.18;;;2.92;;
80334;SDS011;69653;52.674;13.574;2023-05-10T08:25:03;5.63;;;2.42;;
80334;SDS011;69653;52.674;13.574;2023-05-10T08:27:28;5.05;;;1.90;;
80334;SDS011;69653;52.674;13.574;2023-05-10T08:29:54;4.30;;;2.00;;
80334;SDS011;69653;52.674;13.574;2023-05-10T08:32:19;6.50;;;2.10;;
80334;SDS011;69653;52.674;13.574;2023-05-10T08:34:44;6.70;;;2.20;;
80334;SDS011;69653;52.674;13.574;2023-05-10T08:37:10;4.17;;;1.87;;
80334;SDS011;69653;52.674;13.574;2023-05-10T08:39:37;5.38;;;2.70;;
80334;SDS011;69653;52.674;13.574;2023-05-10T08:42:03;6.18;;;2.10;;
80334;SDS011;69653;52.674;13.574;2023-05-10T08:44:34;5.00;;;2.63;;
80334;SDS011;69653;52.674;13.574;2023-05-10T08:47:04;6.38;;;2.25;;
80334;SDS011;69653;52.674;13.574;2023-05-10T08:49:32;8.30;;;2.13;;
80334;SDS011;69653;52.674;13.574;2023-05-10T08:51:58;7.85;;;2.60;;
80334;SDS011;69653;52.674;13.574;2023-05-10T08:54:26;6.20;;;2.72;;
80334;SDS011;69653;52.674;13.574;2023-05-10T08:56:52;4.75;;;2.33;;
80334;SDS011;69653;52.674;13.574;2023-05-10T08:59:18;5.88;;;2.20;;
80334;SDS011;69653;52.674;13.574;2023-05-10T09:01:44;4.53;;;2.42;;
80334;SDS011;69653;52.674;13.574;2023-05-10T09:04:12;3.78;;;1.90;;
80334;SDS011;69653;52.674;13.574;2023-05-10T09:06:37;5.72;;;2.30;;
80334;SDS011;69653;52.674;13.574;2023-05-10T09:09:03;4.30;;;2.17;;
80334;SDS011;69653;52.674;13.574;2023-05-10T09:11:28;4.77;;;2.20;;
80334;SDS011;69653;52.674;13.574;2023-05-10T09:13:55;6.68;;;2.22;;
80334;SDS011;69653;52.674;13.574;2023-05-10T09:16:21;4.65;;;2.08;;
80334;SDS011;69653;52.674;13.574;2023-05-10T09:18:46;5.32;;;2.13;;
80334;SDS011;69653;52.674;13.574;2023-05-10T09:21:12;5.15;;;2.03;;
80334;SDS011;69653;52.674;13.574;2023-05-10T09:23:38;5.07;;;2.40;;
80334;SDS011;69653;52.674;13.574;2023-05-10T09:26:08;4.80;;;2.50;;
80334;SDS011;69653;52.674;13.574;2023-05-10T09:28:34;5.13;;;2.80;;
80334;SDS011;69653;52.674;13.574;2023-05-10T09:31:14;4.13;;;2.17;;
80334;SDS011;69653;52.674;13.574;2023-05-10T09:33:44;6.00;;;2.53;;
80334;SDS011;69653;52.674;13.574;2023-05-10T09:36:10;5.93;;;2.55;;
80334;SDS011;69653;52.674;13.574;2023-05-10T09:38:46;5.60;;;2.35;;
80334;SDS011;69653;52.674;13.574;2023-05-10T09:41:16;4.20;;;2.28;;
80334;SDS011;69653;52.674;13.574;2023-05-10T09:43:43;5.53;;;2.53;;
80334;SDS011;69653;52.674;13.574;2023-05-10T09:46:08;7.83;;;2.60;;
80334;SDS011;69653;52.674;13.574;2023-05-10T09:48:39;4.82;;;1.92;;
80334;SDS011;69653;52.674;13.574;2023-05-10T09:51:07;4.55;;;2.20;;
80334;SDS011;69653;52.674;13.574;2023-05-10T09:53:32;6.43;;;2.60;;
80334;SDS011;69653;52.674;13.574;2023-05-10T09:55:58;5.97;;;2.33;;
80334;SDS011;69653;52.674;13.574;2023-05-10T09:58:23;4.70;;;1.90;;
80334;SDS011;69653;52.674;13.574;2023-05-10T10:00:48;5.93;;;2.23;;
80334;SDS011;69653;52.674;13.574;2023-05-10T10:03:17;5.32;;;2.45;;
80334;SDS011;69653;52.674;13.574;2023-05-10T10:05:44;5.15;;;2.22;;
80334;SDS011;69653;52.674;13.574;2023-05-10T10:08:11;5.63;;;2.75;;
80334;SDS011;69653;52.674;13.574;2023-05-10T10:10:37;3.90;;;2.20;;
80334;SDS011;69653;52.674;13.574;2023-05-10T10:13:06;4.65;;;2.28;;
80334;SDS011;69653;52.674;13.574;2023-05-10T10:15:33;5.03;;;2.33;;
80334;SDS011;69653;52.674;13.574;2023-05-10T10:17:59;5.57;;;2.35;;
80334;SDS011;69653;52.674;13.574;2023-05-10T10:20:25;4.82;;;2.30;;
80334;SDS011;69653;52.674;13.574;2023-05-10T10:22:52;5.95;;;2.60;;
80334;SDS011;69653;52.674;13.574;2023-05-10T10:25:18;6.28;;;2.60;;
80334;SDS011;69653;52.674;13.574;2023-05-10T10:36:09;5.22;;;2.30;;
80334;SDS011;69653;52.674;13.574;2023-05-10T10:38:36;4.80;;;2.40;;
80334;SDS011;69653;52.674;13.574;2023-05-10T10:47:04;5.47;;;2.58;;
80334;SDS011;69653;52.674;13.574;2023-05-10T10:57:31;6.35;;;2.35;;
80334;SDS011;69653;52.674;13.574;2023-05-10T11:02:53;6.28;;;2.35;;
80334;SDS011;69653;52.674;13.574;2023-05-10T11:08:17;5.68;;;2.50;;
80334;SDS011;69653;52.674;13.574;2023-05-10T11:13:37;5.65;;;2.47;;
80334;SDS011;69653;52.674;13.574;2023-05-10T11:16:09;5.15;;;2.58;;
80334;SDS011;69653;52.674;13.574;2023-05-10T11:18:51;6.28;;;2.47;;
80334;SDS011;69653;52.674;13.574;2023-05-10T11:21:27;5.53;;;2.42;;
80334;SDS011;69653;52.674;13.574;2023-05-10T11:23:57;6.60;;;2.60;;
80334;SDS011;69653;52.674;13.574;2023-05-10T11:26:25;7.88;;;3.58;;
80334;SDS011;69653;52.674;13.574;2023-05-10T11:28:52;4.68;;;2.17;;
80334;SDS011;69653;52.674;13.574;2023-05-10T11:31:22;5.22;;;2.30;;
80334;SDS011;69653;52.674;13.574;2023-05-10T11:33:51;4.55;;;1.98;;
80334;SDS011;69653;52.674;13.574;2023-05-10T11:36:19;6.50;;;2.50;;
80334;SDS011;69653;52.674;13.574;2023-05-10T11:38:46;6.90;;;2.40;;
80334;SDS011;69653;52.674;13.574;2023-05-10T11:41:12;4.20;;;2.05;;
80334;SDS011;69653;52.674;13.574;2023-05-10T11:43:41;5.05;;;2.20;;
80334;SDS011;69653;52.674;13.574;2023-05-10T11:46:07;5.35;;;2.30;;
80334;SDS011;69653;52.674;13.574;2023-05-10T11:48:36;6.57;;;2.25;;
80334;SDS011;69653;52.674;13.574;2023-05-10T11:51:03;6.70;;;2.45;;
80334;SDS011;69653;52.674;13.574;2023-05-10T11:53:32;10.00;;;2.10;;
80334;SDS011;69653;52.674;13.574;2023-05-10T11:56:07;6.30;;;2.35;;
80334;SDS011;69653;52.674;13.574;2023-05-10T11:58:34;5.25;;;2.17;;
80334;SDS011;69653;52.674;13.574;2023-05-10T12:01:01;5.90;;;2.10;;
80334;SDS011;69653;52.674;13.574;2023-05-10T12:03:28;5.10;;;2.20;;
80334;SDS011;69653;52.674;13.574;2023-05-10T12:05:54;6.20;;;2.17;;
80334;SDS011;69653;52.674;13.574;2023-05-10T12:08:21;4.70;;;2.22;;
80334;SDS011;69653;52.674;13.574;2023-05-10T12:10:49;6.20;;;2.10;;
80334;SDS011;69653;52.674;13.574;2023-05-10T12:13:14;6.63;;;2.42;;
80334;SDS011;69653;52.674;13.574;2023-05-10T12:15:40;5.07;;;2.15;;
80334;SDS011;69653;52.674;13.574;2023-05-10T12:18:10;5.88;;;2.72;;
80334;SDS011;69653;52.674;13.574;2023-05-10T12:20:37;4.97;;;2.10;;
80334;SDS011;69653;52.674;13.574;2023-05-10T12:23:03;4.18;;;1.95;;
80334;SDS011;69653;52.674;13.574;2023-05-10T12:25:30;4.82;;;2.60;;
80334;SDS011;69653;52.674;13.574;2023-05-10T12:27:58;4.30;;;2.20;;
80334;SDS011;69653;52.674;13.574;2023-05-10T12:30:28;4.18;;;2.03;;
80334;SDS011;69653;52.674;13.574;2023-05-10T12:33:11;5.55;;;2.60;;
80334;SDS011;69653;52.674;13.574;2023-05-10T12:41:00;6.10;;;1.98;;
80334;SDS011;69653;52.674;13.574;2023-05-10T12:43:27;5.47;;;2.28;;
80334;SDS011;69653;52.674;13.574;2023-05-10T12:45:52;4.30;;;2.50;;
80334;SDS011;69653;52.674;13.574;2023-05-10T12:48:18;4.78;;;2.40;;
80334;SDS011;69653;52.674;13.574;2023-05-10T12:50:43;5.20;;;2.20;;
80334;SDS011;69653;52.674;13.574;2023-05-10T12:53:09;9.03;;;2.43;;
80334;SDS011;69653;52.674;13.574;2023-05-10T12:55:34;4.88;;;1.92;;
80334;SDS011;69653;52.674;13.574;2023-05-10T12:58:00;8.10;;;1.95;;
80334;SDS011;69653;52.674;13.574;2023-05-10T13:00:25;4.67;;;2.00;;
80334;SDS011;69653;52.674;13.574;2023-05-10T13:02:50;5.40;;;2.20;;
80334;SDS011;69653;52.674;13.574;2023-05-10T13:05:16;5.57;;;2.20;;
80334;SDS011;69653;52.674;13.574;2023-05-10T13:07:41;5.78;;;2.28;;
80334;SDS011;69653;52.674;13.574;2023-05-10T13:10:08;6.40;;;3.00;;
80334;SDS011;69653;52.674;13.574;2023-05-10T13:12:34;5.22;;;1.95;;
80334;SDS011;69653;52.674;13.574;2023-05-10T13:14:59;4.03;;;2.13;;
80334;SDS011;69653;52.674;13.574;2023-05-10T13:17:25;6.73;;;2.30;;
80334;SDS011;69653;52.674;13.574;2023-05-10T13:19:50;4.15;;;2.13;;
80334;SDS011;69653;52.674;13.574;2023-05-10T13:22:16;6.07;;;2.17;;
80334;SDS011;69653;52.674;13.574;2023-05-10T13:24:41;5.47;;;2.10;;
80334;SDS011;69653;52.674;13.574;2023-05-10T13:27:06;4.03;;;2.00;;
80334;SDS011;69653;52.674;13.574;2023-05-10T13:29:32;3.47;;;1.63;;
80334;SDS011;69653;52.674;13.574;2023-05-10T13:31:57;6.20;;;2.07;;
80334;SDS011;69653;52.674;13.574;2023-05-10T13:34:23;4.57;;;2.10;;
80334;SDS011;69653;52.674;13.574;2023-05-10T13:36:49;5.47;;;1.67;;
80334;SDS011;69653;52.674;13.574;2023-05-10T13:39:14;7.55;;;2.45;;
80334;SDS011;69653;52.674;13.574;2023-05-10T13:41:40;4.22;;;2.20;;
80334;SDS011;69653;52.674;13.574;2023-05-10T13:44:05;4.53;;;2.00;;
80334;SDS011;69653;52.674;13.574;2023-05-10T13:46:31;4.53;;;2.00;;
80334;SDS011;69653;52.674;13.574;2023-05-10T13:48:56;6.25;;;2.05;;
80334;SDS011;69653;52.674;13.574;2023-05-10T13:51:22;4.97;;;1.90;;
80334;SDS011;69653;52.674;13.574;2023-05-10T13:53:47;5.32;;;1.80;;
80334;SDS011;69653;52.674;13.574;2023-05-10T13:56:13;7.03;;;1.90;;
80334;SDS011;69653;52.674;13.574;2023-05-10T13:58:39;6.20;;;2.33;;
80334;SDS011;69653;52.674;13.574;2023-05-10T14:01:04;5.95;;;2.00;;
80334;SDS011;69653;52.674;13.574;2023-05-10T14:03:29;4.78;;;2.35;;
80334;SDS011;69653;52.674;13.574;2023-05-10T14:05:55;4.82;;;1.88;;
80334;SDS011;69653;52.674;13.574;2023-05-10T14:08:20;5.10;;;1.70;;
80334;SDS011;69653;52.674;13.574;2023-05-10T14:10:46;4.95;;;1.70;;
80334;SDS011;69653;52.674;13.574;2023-05-10T14:13:11;5.78;;;1.65;;
80334;SDS011;69653;52.674;13.574;2023-05-10T14:15:37;3.90;;;1.90;;
80334;SDS011;69653;52.674;13.574;2023-05-10T14:18:02;5.65;;;2.10;;
80334;SDS011;69653;52.674;13.574;2023-05-10T14:20:28;4.10;;;1.77;;
80334;SDS011;69653;52.674;13.574;2023-05-10T14:22:53;5.72;;;2.33;;
80334;SDS011;69653;52.674;13.574;2023-05-10T14:25:19;4.60;;;1.88;;
80334;SDS011;69653;52.674;13.574;2023-05-10T14:27:44;5.40;;;2.10;;
80334;SDS011;69653;52.674;13.574;2023-05-10T14:30:10;4.13;;;1.77;;
80334;SDS011;69653;52.674;13.574;2023-05-10T14:32:35;6.82;;;1.90;;
80334;SDS011;69653;52.674;13.574;2023-05-10T14:35:01;3.42;;;1.55;;
80334;SDS011;69653;52.674;13.574;2023-05-10T14:37:27;3.83;;;1.75;;
80334;SDS011;69653;52.674;13.574;2023-05-10T14:39:52;3.33;;;1.63;;
80334;SDS011;69653;52.674;13.574;2023-05-10T14:42:18;4.72;;;1.90;;
80334;SDS011;69653;52.674;13.574;2023-05-10T14:44:44;6.10;;;1.85;;
80334;SDS011;69653;52.674;13.574;2023-05-10T14:47:09;4.67;;;1.80;;
80334;SDS011;69653;52.674;13.574;2023-05-10T14:49:34;5.03;;;1.83;;
80334;SDS011;69653;52.674;13.574;2023-05-10T14:52:00;4.80;;;1.90;;
80334;SDS011;69653;52.674;13.574;2023-05-10T14:54:25;4.27;;;1.50;;
80334;SDS011;69653;52.674;13.574;2023-05-10T14:56:50;3.00;;;1.63;;
80334;SDS011;69653;52.674;13.574;2023-05-10T14:59:16;4.60;;;1.90;;
80334;SDS011;69653;52.674;13.574;2023-05-10T15:01:41;4.63;;;1.60;;
80334;SDS011;69653;52.674;13.574;2023-05-10T15:04:07;4.57;;;1.67;;
80334;SDS011;69653;52.674;13.574;2023-05-10T15:06:33;8.00;;;1.85;;
80334;SDS011;69653;52.674;13.574;2023-05-10T15:08:59;4.45;;;2.03;;
80334;SDS011;69653;52.674;13.574;2023-05-10T15:11:26;4.50;;;1.70;;
80334;SDS011;69653;52.674;13.574;2023-05-10T15:13:51;5.97;;;3.10;;
80334;SDS011;69653;52.674;13.574;2023-05-10T15:16:17;5.07;;;1.70;;